createdAt,value
2022-11-02T00:01:17.792Z,20.53
2022-11-02T00:03:45.779Z,20.52
2022-11-02T00:06:13.742Z,20.53
2022-11-02T00:08:43.176Z,20.52
2022-11-02T00:11:11.148Z,20.51
2022-11-02T00:13:39.382Z,20.51
2022-11-02T00:16:11.654Z,20.50
2022-11-02T00:18:39.668Z,20.51
2022-11-02T00:21:07.690Z,20.51
2022-11-02T00:23:35.769Z,20.50
2022-11-02T00:26:05.548Z,20.49
2022-11-02T00:28:33.507Z,20.49
2022-11-02T00:31:01.401Z,20.49
2022-11-02T00:33:29.328Z,20.49
2022-11-02T00:35:57.636Z,20.49
2022-11-02T00:38:25.657Z,20.49
2022-11-02T00:40:53.564Z,20.49
2022-11-02T00:43:22.899Z,20.48
2022-11-02T00:45:50.865Z,20.47
2022-11-02T00:48:18.825Z,20.47
2022-11-02T00:50:46.811Z,20.47
2022-11-02T00:53:17.103Z,20.45
2022-11-02T00:55:46.234Z,20.46
2022-11-02T00:58:14.308Z,20.45
2022-11-02T01:00:43.578Z,20.45
2022-11-02T01:03:11.640Z,20.45
2022-11-02T01:05:39.542Z,20.44
2022-11-02T01:08:07.550Z,20.44
2022-11-02T01:10:35.444Z,20.44
2022-11-02T01:13:03.764Z,20.44
2022-11-02T01:15:31.664Z,20.43
2022-11-02T01:18:01.178Z,20.43
2022-11-02T01:20:29.660Z,20.43
2022-11-02T01:22:59.096Z,20.42
2022-11-02T01:25:27.101Z,20.42
2022-11-02T01:27:54.970Z,20.42
2022-11-02T01:30:22.958Z,20.41
2022-11-02T01:32:51.124Z,20.40
2022-11-02T01:35:20.450Z,20.40
2022-11-02T01:37:48.369Z,20.39
2022-11-02T01:40:16.413Z,20.39
2022-11-02T01:42:44.414Z,20.40
2022-11-02T01:45:15.069Z,20.37
2022-11-02T01:47:49.334Z,20.39
2022-11-02T01:50:20.383Z,20.37
2022-11-02T01:52:49.827Z,20.37
2022-11-02T01:55:22.300Z,20.37
2022-11-02T01:57:54.722Z,20.37
2022-11-02T02:00:23.077Z,20.36
2022-11-02T02:02:55.847Z,20.35
2022-11-02T02:05:25.942Z,20.36
2022-11-02T02:07:56.648Z,20.36
2022-11-02T02:10:24.649Z,20.35
2022-11-02T02:12:52.735Z,20.34
2022-11-02T02:15:23.347Z,20.34
2022-11-02T02:17:57.082Z,20.33
2022-11-02T02:20:50.496Z,20.34
2022-11-02T02:23:48.955Z,20.32
2022-11-02T02:26:42.284Z,20.31
2022-11-02T02:29:20.707Z,20.32
2022-11-02T02:31:58.689Z,20.30
2022-11-02T02:34:31.770Z,20.31
2022-11-02T02:37:06.618Z,20.29
2022-11-02T02:39:42.034Z,20.29
2022-11-02T02:42:18.003Z,20.30
2022-11-02T02:44:52.534Z,20.29
2022-11-02T02:47:27.789Z,20.29
2022-11-02T02:50:00.446Z,20.29
2022-11-02T02:52:30.065Z,20.27
2022-11-02T02:55:01.073Z,20.28
2022-11-02T02:57:33.069Z,20.27
2022-11-02T03:00:03.032Z,20.26
2022-11-02T03:02:34.863Z,20.26
2022-11-02T03:05:02.997Z,20.27
2022-11-02T03:07:34.817Z,20.25
2022-11-02T03:10:12.548Z,20.25
2022-11-02T03:12:48.702Z,20.24
2022-11-02T03:15:26.096Z,20.23
2022-11-02T03:18:03.603Z,20.24
2022-11-02T03:20:40.671Z,20.23
2022-11-02T03:23:16.585Z,20.23
2022-11-02T03:25:55.325Z,20.23
2022-11-02T03:28:29.725Z,20.23
2022-11-02T03:31:05.001Z,20.22
2022-11-02T03:33:36.820Z,20.22
2022-11-02T03:36:11.179Z,20.22
2022-11-02T03:38:46.478Z,20.21
2022-11-02T03:41:16.587Z,20.21
2022-11-02T03:43:45.959Z,20.20
2022-11-02T03:46:17.815Z,20.21
2022-11-02T03:48:49.215Z,20.20
2022-11-02T03:51:21.540Z,20.20
2022-11-02T03:53:54.584Z,20.20
2022-11-02T03:56:31.206Z,20.19
2022-11-02T03:58:59.195Z,20.20
2022-11-02T04:01:30.504Z,20.20
2022-11-02T04:03:58.562Z,20.19
2022-11-02T04:06:27.945Z,20.19
2022-11-02T04:08:56.016Z,20.18
2022-11-02T04:11:41.194Z,20.19
2022-11-02T04:14:27.291Z,20.18
2022-11-02T04:17:16.745Z,20.18
2022-11-02T04:19:45.572Z,20.18
2022-11-02T04:22:34.277Z,20.18
2022-11-02T04:25:18.701Z,20.18
2022-11-02T04:27:48.457Z,20.16
2022-11-02T04:30:17.965Z,20.17
2022-11-02T04:33:06.622Z,20.16
2022-11-02T04:35:35.773Z,20.15
2022-11-02T04:38:21.161Z,20.16
2022-11-02T04:40:51.087Z,20.16
2022-11-02T04:43:19.004Z,20.15
2022-11-02T04:45:46.928Z,20.14
2022-11-02T04:48:17.401Z,20.15
2022-11-02T04:50:45.370Z,20.13
2022-11-02T04:53:13.280Z,20.14
2022-11-02T04:55:41.303Z,20.13
2022-11-02T04:58:09.543Z,20.14
2022-11-02T05:00:37.526Z,20.12
2022-11-02T05:03:09.740Z,20.13
2022-11-02T05:05:41.644Z,20.13
2022-11-02T05:08:09.636Z,20.11
2022-11-02T05:10:37.625Z,20.10
2022-11-02T05:13:05.582Z,20.11
2022-11-02T05:15:33.507Z,20.11
2022-11-02T05:18:01.632Z,20.10
2022-11-02T05:20:29.775Z,20.11
2022-11-02T05:22:59.101Z,20.10
2022-11-02T05:25:27.027Z,20.10
2022-11-02T05:27:57.237Z,20.10
2022-11-02T05:30:25.306Z,20.10
2022-11-02T05:32:57.118Z,20.10
2022-11-02T05:35:25.555Z,20.09
2022-11-02T05:37:56.269Z,20.10
2022-11-02T05:40:25.566Z,20.10
2022-11-02T05:42:53.485Z,20.10
2022-11-02T05:45:24.469Z,20.08
2022-11-02T05:47:52.521Z,20.07
2022-11-02T05:50:20.473Z,20.08
2022-11-02T05:52:48.372Z,20.08
2022-11-02T05:55:18.077Z,20.08
2022-11-02T05:57:51.733Z,20.07
2022-11-02T06:00:20.541Z,20.08
2022-11-02T06:02:48.529Z,20.07
2022-11-02T06:05:16.767Z,20.06
2022-11-02T06:07:44.683Z,20.07
2022-11-02T06:10:12.616Z,20.07
2022-11-02T06:12:57.744Z,20.05
2022-11-02T06:15:25.920Z,20.06
2022-11-02T06:17:53.819Z,20.06
2022-11-02T06:20:21.952Z,20.07
2022-11-02T06:22:50.053Z,20.06
2022-11-02T06:25:20.835Z,20.05
2022-11-02T06:27:53.492Z,20.06
2022-11-02T06:30:23.452Z,20.06
2022-11-02T06:32:53.137Z,20.06
2022-11-02T06:35:22.703Z,20.05
2022-11-02T06:37:50.781Z,20.04
2022-11-02T06:40:21.374Z,20.05
2022-11-02T06:43:14.871Z,20.04
2022-11-02T06:45:48.270Z,20.05
2022-11-02T06:48:18.929Z,20.03
2022-11-02T06:50:46.893Z,20.04
2022-11-02T06:53:14.869Z,20.02
2022-11-02T06:55:42.833Z,20.02
2022-11-02T06:58:10.788Z,20.02
2022-11-02T07:00:39.201Z,20.02
2022-11-02T07:03:11.366Z,20.02
2022-11-02T07:05:39.365Z,20.03
2022-11-02T07:08:07.273Z,20.02
2022-11-02T07:10:36.550Z,20.02
2022-11-02T07:13:05.051Z,20.02
2022-11-02T07:15:33.295Z,20.01
2022-11-02T07:18:01.164Z,20.02
2022-11-02T07:20:31.434Z,19.99
2022-11-02T07:23:01.397Z,20.00
2022-11-02T07:25:31.575Z,20.01
2022-11-02T07:28:00.672Z,20.01
2022-11-02T07:30:29.328Z,20.00
2022-11-02T07:32:57.634Z,20.00
2022-11-02T07:35:25.842Z,20.01
2022-11-02T07:37:59.764Z,20.00
2022-11-02T07:40:28.595Z,20.00
2022-11-02T07:42:57.276Z,19.99
2022-11-02T07:45:26.139Z,20.00
2022-11-02T07:47:54.293Z,20.00
2022-11-02T07:50:24.298Z,19.99
2022-11-02T07:52:53.909Z,19.99
2022-11-02T07:55:25.012Z,19.99
2022-11-02T07:57:56.663Z,19.98
2022-11-02T08:00:25.222Z,19.98
2022-11-02T08:02:55.779Z,19.97
2022-11-02T08:05:24.239Z,19.98
2022-11-02T08:08:01.180Z,19.99
2022-11-02T08:10:35.568Z,20.00
2022-11-02T08:13:07.450Z,19.99
2022-11-02T08:15:35.335Z,20.00
2022-11-02T08:18:04.854Z,20.00
2022-11-02T08:20:34.973Z,20.00
2022-11-02T08:23:03.122Z,20.01
2022-11-02T08:25:35.872Z,20.01
2022-11-02T08:28:04.599Z,20.03
2022-11-02T08:30:33.402Z,20.03
2022-11-02T08:33:04.968Z,20.00
2022-11-02T08:35:37.670Z,20.00
2022-11-02T08:38:06.089Z,20.01
2022-11-02T08:40:35.827Z,20.02
2022-11-02T08:43:05.979Z,20.04
2022-11-02T08:46:08.439Z,20.05
2022-11-02T08:48:23.346Z,20.07
2022-11-02T08:50:51.318Z,20.08
2022-11-02T08:53:19.573Z,20.07
2022-11-02T08:55:48.896Z,20.07
2022-11-02T08:58:17.982Z,20.07
2022-11-02T09:00:46.091Z,20.07
2022-11-02T09:03:15.704Z,20.07
2022-11-02T09:05:45.231Z,20.07
2022-11-02T09:08:15.121Z,20.07
2022-11-02T09:10:43.366Z,20.06
2022-11-02T09:13:17.264Z,20.06
2022-11-02T09:15:45.222Z,20.06
2022-11-02T09:18:13.257Z,20.06
2022-11-02T09:20:41.185Z,20.06
2022-11-02T09:23:10.356Z,20.07
2022-11-02T09:25:38.416Z,20.06
2022-11-02T09:28:06.892Z,20.08
2022-11-02T09:30:36.360Z,20.08
2022-11-02T09:33:06.422Z,20.11
2022-11-02T09:35:38.672Z,20.11
2022-11-02T09:38:06.753Z,20.11
2022-11-02T09:40:39.162Z,20.12
2022-11-02T09:43:15.693Z,20.11
2022-11-02T09:45:54.958Z,20.11
2022-11-02T09:48:28.999Z,20.11
2022-11-02T09:51:03.113Z,20.11
2022-11-02T09:53:39.691Z,20.10
2022-11-02T09:56:09.270Z,20.11
2022-11-02T09:58:39.647Z,20.10
2022-11-02T10:01:21.373Z,20.08
2022-11-02T10:04:04.226Z,20.03
2022-11-02T10:06:36.678Z,20.02
2022-11-02T10:09:11.786Z,20.00
2022-11-02T10:11:53.016Z,20.01
2022-11-02T10:14:25.225Z,20.01
2022-11-02T10:16:56.278Z,20.01
2022-11-02T10:19:27.796Z,20.04
2022-11-02T10:21:59.532Z,20.05
2022-11-02T10:24:34.435Z,20.06
2022-11-02T10:27:10.227Z,20.07
2022-11-02T10:29:47.753Z,20.08
2022-11-02T10:32:19.466Z,20.12
2022-11-02T10:34:58.764Z,20.13
2022-11-02T10:37:48.401Z,20.13
2022-11-02T10:40:27.325Z,20.15
2022-11-02T10:43:14.369Z,20.15
2022-11-02T10:46:19.027Z,20.16
2022-11-02T10:48:54.544Z,20.17
2022-11-02T10:51:24.059Z,20.18
2022-11-02T10:53:53.921Z,20.19
2022-11-02T10:56:23.548Z,20.14
2022-11-02T10:58:57.899Z,20.10
2022-11-02T11:01:26.268Z,20.09
2022-11-02T11:03:58.504Z,20.10
2022-11-02T11:06:29.434Z,20.10
2022-11-02T11:09:01.604Z,20.08
2022-11-02T11:11:31.394Z,20.08
2022-11-02T11:16:54.396Z,19.83
2022-11-02T11:19:38.158Z,19.71
2022-11-02T11:22:25.755Z,19.66
2022-11-02T11:24:54.002Z,19.65
2022-11-02T11:27:24.248Z,19.65
2022-11-02T11:29:56.763Z,19.64
2022-11-02T11:32:30.118Z,19.67
2022-11-02T11:35:03.506Z,19.69
2022-11-02T11:37:32.369Z,19.69
2022-11-02T11:40:04.364Z,19.74
2022-11-02T11:42:36.019Z,19.78
2022-11-02T11:45:07.097Z,19.81
2022-11-02T11:47:38.408Z,19.85
2022-11-02T11:50:19.878Z,19.87
2022-11-02T11:53:27.470Z,19.89
2022-11-02T11:55:58.198Z,19.91
2022-11-02T11:58:27.830Z,19.92
2022-11-02T12:01:10.686Z,19.94
2022-11-02T12:04:01.408Z,19.95
2022-11-02T12:06:44.001Z,19.97
2022-11-02T12:09:21.501Z,19.98
2022-11-02T12:12:02.832Z,19.99
2022-11-02T12:14:44.642Z,20.00
2022-11-02T12:17:36.864Z,20.01
2022-11-02T12:20:19.659Z,20.00
2022-11-02T12:22:57.633Z,20.02
2022-11-02T12:25:38.659Z,20.02
2022-11-02T12:28:21.651Z,20.03
2022-11-02T12:30:57.942Z,20.04
2022-11-02T12:33:39.987Z,20.05
2022-11-02T12:36:18.727Z,20.06
2022-11-02T12:39:03.691Z,20.06
2022-11-02T12:41:53.774Z,20.08
2022-11-02T12:44:57.219Z,20.08
2022-11-02T12:47:42.430Z,20.09
2022-11-02T12:50:18.689Z,20.10
2022-11-02T12:52:57.133Z,20.08
2022-11-02T12:55:35.702Z,20.09
2022-11-02T12:58:08.721Z,20.11
2022-11-02T13:00:42.127Z,20.10
2022-11-02T13:03:26.382Z,20.11
2022-11-02T13:06:02.375Z,20.11
2022-11-02T13:08:37.258Z,20.10
2022-11-02T13:11:11.507Z,20.11
2022-11-02T13:13:43.856Z,20.11
2022-11-02T13:16:14.624Z,20.10
2022-11-02T13:18:47.727Z,20.12
2022-11-02T13:21:21.121Z,20.12
2022-11-02T13:23:52.980Z,20.12
2022-11-02T13:26:28.598Z,20.13
2022-11-02T13:29:00.518Z,20.14
2022-11-02T13:31:32.111Z,20.14
2022-11-02T13:34:03.996Z,20.12
2022-11-02T13:36:32.466Z,20.14
2022-11-02T13:39:04.852Z,20.14
2022-11-02T13:41:51.256Z,20.15
2022-11-02T13:44:37.952Z,20.15
2022-11-02T13:47:29.832Z,20.15
2022-11-02T13:49:59.811Z,20.15
2022-11-02T13:52:36.380Z,20.17
2022-11-02T13:55:08.148Z,20.17
2022-11-02T13:57:41.273Z,20.17
2022-11-02T14:00:30.799Z,20.18
2022-11-02T14:03:03.592Z,20.17
2022-11-02T14:05:33.695Z,20.19
2022-11-02T14:08:03.815Z,20.18
2022-11-02T14:10:37.841Z,20.19
2022-11-02T14:13:07.398Z,20.19
2022-11-02T14:15:42.474Z,20.20
2022-11-02T14:18:30.826Z,20.21
2022-11-02T14:20:59.371Z,20.20
2022-11-02T14:23:40.780Z,20.21
2022-11-02T14:26:34.315Z,20.21
2022-11-02T14:29:26.892Z,20.22
2022-11-02T14:32:00.427Z,20.21
2022-11-02T14:34:51.092Z,20.22
2022-11-02T14:37:39.891Z,20.22
2022-11-02T14:40:21.382Z,20.24
2022-11-02T14:43:15.892Z,20.24
2022-11-02T14:45:59.786Z,20.24
2022-11-02T14:48:33.290Z,20.24
2022-11-02T14:51:05.306Z,20.26
2022-11-02T14:53:35.849Z,20.27
2022-11-02T14:56:04.408Z,20.27
2022-11-02T14:58:36.702Z,20.27
2022-11-02T15:03:39.884Z,20.27
2022-11-02T15:06:19.109Z,20.29
2022-11-02T15:08:52.628Z,20.29
2022-11-02T15:11:46.965Z,20.30
2022-11-02T15:14:52.775Z,20.31
2022-11-02T15:17:54.467Z,20.31
2022-11-02T15:20:28.525Z,20.33
2022-11-02T15:23:09.543Z,20.34
2022-11-02T15:25:42.468Z,20.36
2022-11-02T15:28:14.960Z,20.37
2022-11-02T15:30:46.685Z,20.37
2022-11-02T15:33:23.391Z,20.37
2022-11-02T15:35:54.570Z,20.38
2022-11-02T15:38:32.737Z,20.40
2022-11-02T15:41:17.940Z,20.41
2022-11-02T15:44:27.769Z,20.42
2022-11-02T15:47:05.319Z,20.44
2022-11-02T15:49:56.719Z,20.44
2022-11-02T15:53:16.476Z,20.39
2022-11-02T15:55:48.827Z,20.39
2022-11-02T15:58:30.076Z,20.40
2022-11-02T16:01:17.994Z,20.43
2022-11-02T16:03:48.273Z,20.45
2022-11-02T16:06:25.981Z,20.46
2022-11-02T16:08:54.028Z,20.48
2022-11-02T16:11:21.987Z,20.50
2022-11-02T16:14:08.469Z,20.53
2022-11-02T16:16:47.689Z,20.57
2022-11-02T16:19:20.666Z,20.58
2022-11-02T16:21:51.177Z,20.58
2022-11-02T16:24:20.042Z,20.58
2022-11-02T16:26:50.256Z,20.60
2022-11-02T16:29:27.938Z,20.63
2022-11-02T16:31:56.400Z,20.66
2022-11-02T16:34:28.559Z,20.68
2022-11-02T16:37:09.922Z,20.74
2022-11-02T16:39:42.162Z,20.74
2022-11-02T16:42:17.393Z,20.76
2022-11-02T16:44:56.724Z,20.79
2022-11-02T16:47:42.807Z,20.80
2022-11-02T16:50:21.217Z,20.80
2022-11-02T16:52:57.520Z,20.80
2022-11-02T16:55:47.346Z,20.83
2022-11-02T16:58:19.956Z,20.84
2022-11-02T17:00:59.523Z,20.84
2022-11-02T17:03:31.145Z,20.84
2022-11-02T17:06:01.327Z,20.85
2022-11-02T17:08:34.148Z,20.86
2022-11-02T17:11:04.340Z,20.84
2022-11-02T17:13:36.231Z,20.84
2022-11-02T17:16:11.709Z,20.83
2022-11-02T17:18:40.063Z,20.84
2022-11-02T17:21:24.304Z,20.83
2022-11-02T17:23:54.065Z,20.83
2022-11-02T17:26:31.926Z,20.84
2022-11-02T17:29:00.622Z,20.86
2022-11-02T17:31:34.508Z,20.86
2022-11-02T17:34:10.183Z,20.85
2022-11-02T17:36:42.942Z,20.84
2022-11-02T17:39:14.796Z,20.84
2022-11-02T17:42:01.056Z,20.84
2022-11-02T17:44:28.983Z,20.84
2022-11-02T17:46:58.883Z,20.86
2022-11-02T17:49:26.842Z,20.87
2022-11-02T17:51:54.845Z,20.87
2022-11-02T17:54:24.141Z,20.87
2022-11-02T17:56:52.095Z,20.88
2022-11-02T17:59:19.988Z,20.86
2022-11-02T18:01:48.180Z,20.86
2022-11-02T18:04:16.293Z,20.86
2022-11-02T18:06:46.565Z,20.84
2022-11-02T18:09:19.159Z,20.85
2022-11-02T18:11:48.740Z,20.83
2022-11-02T18:14:17.587Z,20.84
2022-11-02T18:16:46.511Z,20.83
2022-11-02T18:19:15.087Z,20.83
2022-11-02T18:21:44.709Z,20.83
2022-11-02T18:24:12.646Z,20.83
2022-11-02T18:26:44.167Z,20.83
2022-11-02T18:29:16.240Z,20.82
2022-11-02T18:31:44.370Z,20.83
2022-11-02T18:34:12.512Z,20.83
2022-11-02T18:36:40.736Z,20.82
2022-11-02T18:39:08.713Z,20.83
2022-11-02T18:41:37.540Z,20.82
2022-11-02T18:44:13.503Z,20.81
2022-11-02T18:46:44.304Z,20.82
2022-11-02T18:49:12.330Z,20.83
2022-11-02T18:51:43.096Z,20.82
2022-11-02T18:54:11.814Z,20.82
2022-11-02T18:56:39.747Z,20.81
2022-11-02T18:59:07.759Z,20.81
2022-11-02T19:01:35.871Z,20.82
2022-11-02T19:04:05.558Z,20.82
2022-11-02T19:06:52.320Z,20.81
2022-11-02T19:09:23.257Z,20.81
2022-11-02T19:11:54.920Z,20.80
2022-11-02T19:14:24.816Z,20.82
2022-11-02T19:16:52.776Z,20.83
2022-11-02T19:19:22.659Z,20.80
2022-11-02T19:21:50.620Z,20.82
2022-11-02T19:24:20.987Z,20.82
2022-11-02T19:26:49.009Z,20.83
2022-11-02T19:29:17.693Z,20.83
2022-11-02T19:31:46.016Z,20.81
2022-11-02T19:34:14.321Z,20.82
2022-11-02T19:36:44.123Z,20.81
2022-11-02T19:39:12.086Z,20.82
2022-11-02T19:41:40.061Z,20.81
2022-11-02T19:44:08.353Z,20.82
2022-11-02T19:46:36.378Z,20.82
2022-11-02T19:49:04.320Z,20.82
2022-11-02T19:51:32.898Z,20.82
2022-11-02T19:54:03.634Z,20.82
2022-11-02T19:56:33.921Z,20.84
2022-11-02T19:59:02.437Z,20.85
2022-11-02T20:01:32.360Z,20.85
2022-11-02T20:04:00.802Z,20.87
2022-11-02T20:06:32.244Z,20.89
2022-11-02T20:09:04.238Z,20.93
2022-11-02T20:11:36.044Z,20.94
2022-11-02T20:14:05.224Z,20.94
2022-11-02T20:16:33.253Z,20.95
2022-11-02T20:19:01.195Z,20.98
2022-11-02T20:21:34.571Z,20.98
2022-11-02T20:24:07.866Z,20.99
2022-11-02T20:26:40.885Z,21.00
2022-11-02T20:29:12.298Z,21.01
2022-11-02T20:31:44.206Z,21.01
2022-11-02T20:34:14.036Z,21.02
2022-11-02T20:36:41.994Z,21.03
2022-11-02T20:39:12.120Z,21.02
2022-11-02T20:41:40.288Z,21.02
2022-11-02T20:44:08.157Z,21.02
2022-11-02T20:46:41.229Z,21.02
2022-11-02T20:51:58.550Z,21.05
2022-11-02T20:54:29.859Z,21.07
2022-11-02T20:56:58.137Z,21.07
2022-11-02T20:59:26.269Z,21.06
2022-11-02T21:01:54.313Z,21.04
2022-11-02T21:04:22.579Z,21.04
2022-11-02T21:06:51.159Z,21.04
2022-11-02T21:09:19.306Z,21.03
2022-11-02T21:12:05.947Z,21.04
2022-11-02T21:14:33.982Z,21.02
2022-11-02T21:17:06.713Z,21.02
2022-11-02T21:19:34.855Z,21.03
2022-11-02T21:22:02.776Z,21.01
2022-11-02T21:24:30.842Z,21.01
2022-11-02T21:27:00.137Z,21.00
2022-11-02T21:29:28.060Z,21.01
2022-11-02T21:31:55.941Z,21.00
2022-11-02T21:34:23.895Z,21.00
2022-11-02T21:36:53.872Z,21.01
2022-11-02T21:39:21.882Z,21.00
2022-11-02T21:41:49.769Z,20.99
2022-11-02T21:44:19.056Z,20.99
2022-11-02T21:46:46.944Z,20.99
2022-11-02T21:49:15.064Z,20.99
2022-11-02T21:51:43.174Z,20.98
2022-11-02T21:54:11.528Z,21.01
2022-11-02T21:56:39.864Z,21.01
2022-11-02T21:59:11.760Z,21.00
2022-11-02T22:01:49.164Z,21.01
2022-11-02T22:04:21.433Z,21.02
2022-11-02T22:06:49.643Z,21.02
2022-11-02T22:09:17.553Z,21.03
2022-11-02T22:11:45.584Z,21.01
2022-11-02T22:14:16.521Z,21.00
2022-11-02T22:16:46.142Z,21.00
2022-11-02T22:19:15.389Z,20.97
2022-11-02T22:21:45.398Z,20.97
2022-11-02T22:24:13.573Z,20.96
2022-11-02T22:26:42.216Z,20.95
2022-11-02T22:29:10.867Z,20.93
2022-11-02T22:31:40.859Z,20.94
2022-11-02T22:34:11.715Z,20.93
2022-11-02T22:36:41.796Z,20.91
2022-11-02T22:39:12.569Z,20.92
2022-11-02T22:41:42.091Z,20.91
2022-11-02T22:44:11.200Z,20.91
2022-11-02T22:46:40.898Z,20.89
2022-11-02T22:49:11.911Z,20.88
2022-11-02T22:51:42.001Z,20.89
2022-11-02T22:54:11.764Z,20.88
2022-11-02T22:56:39.778Z,20.88
2022-11-02T22:59:07.949Z,20.87
2022-11-02T23:01:37.029Z,20.87
2022-11-02T23:04:06.496Z,20.85
2022-11-02T23:06:36.110Z,20.84
2022-11-02T23:09:04.682Z,20.83
2022-11-02T23:11:33.767Z,20.83
2022-11-02T23:14:04.526Z,20.83
2022-11-02T23:16:34.745Z,20.82
2022-11-02T23:19:25.284Z,20.80
2022-11-02T23:22:12.361Z,20.80
2022-11-02T23:24:59.346Z,20.80
2022-11-02T23:27:27.794Z,20.80
2022-11-02T23:30:13.422Z,20.78
2022-11-02T23:32:41.392Z,20.79
2022-11-02T23:35:26.747Z,20.79
2022-11-02T23:38:04.937Z,20.79
2022-11-02T23:40:33.957Z,20.81
2022-11-02T23:43:01.875Z,20.79
2022-11-02T23:45:29.769Z,20.79
2022-11-02T23:48:03.866Z,20.78
2022-11-02T23:50:50.983Z,20.80
2022-11-02T23:53:39.732Z,20.77
2022-11-02T23:56:31.527Z,20.76
2022-11-02T23:59:07.283Z,20.75
